Time;durP1;ratioP1;P1;durP2;ratioP2;P2;SDS_P1;SDS_P2;PMS_P1;PMS_P2;Temp;Humidity;BMP_temperature;BMP_pressure;BME280_temperature;BME280_humidity;BME280_pressure;Samples;Min_cycle;Max_cycle;Signal;HPM_P1;HPM_P2
2024/01/17 00:00:18;;;;;;;19.15;9.23;;;;;;;-3.52;100.00;100134.94;4991228;28;20060;-68
2024/01/17 00:02:45;;;;;;;20.38;10.45;;;;;;;-3.54;100.00;100129.75;4991531;28;20105;-67
2024/01/17 00:05:13;;;;;;;18.25;9.65;;;;;;;-3.53;100.00;100134.09;4988565;28;20045;-67
2024/01/17 00:07:40;;;;;;;17.15;10.50;;;;;;;-3.56;100.00;100122.84;4995075;28;20112;-67
2024/01/17 00:10:09;;;;;;;20.13;9.82;;;;;;;-3.59;100.00;100121.97;4992396;28;20045;-67
2024/01/17 00:12:36;;;;;;;19.95;10.02;;;;;;;-3.59;100.00;100119.38;4989355;28;20408;-67
2024/01/17 00:15:04;;;;;;;18.45;10.20;;;;;;;-3.64;100.00;100113.28;4989893;28;20089;-68
2024/01/17 00:17:31;;;;;;;21.73;10.85;;;;;;;-3.67;100.00;100105.53;4991328;28;20046;-67
2024/01/17 00:19:58;;;;;;;17.02;9.98;;;;;;;-3.67;100.00;100118.41;4994805;28;20117;-69
2024/01/17 00:22:26;;;;;;;16.55;9.73;;;;;;;-3.70;100.00;100107.16;4992993;28;20108;-68
2024/01/17 00:24:53;;;;;;;21.05;9.93;;;;;;;-3.74;100.00;100108.81;5007423;28;20041;-68
2024/01/17 00:27:24;;;;;;;21.48;10.23;;;;;;;-3.77;100.00;100107.06;5008926;28;20069;-68
2024/01/17 00:29:57;;;;;;;18.48;10.27;;;;;;;-3.79;100.00;100106.16;4992381;28;20050;-68
2024/01/17 00:32:25;;;;;;;15.32;9.77;;;;;;;-3.78;100.00;100096.75;4998392;28;20133;-68
2024/01/17 00:34:53;;;;;;;20.90;9.90;;;;;;;-3.81;100.00;100088.97;4989189;28;20118;-68
2024/01/17 00:37:20;;;;;;;21.10;9.70;;;;;;;-3.81;100.00;100081.22;4987235;28;20526;-68
2024/01/17 00:39:47;;;;;;;18.75;9.77;;;;;;;-3.81;100.00;100083.81;4994969;28;20121;-69
2024/01/17 00:42:15;;;;;;;19.05;9.98;;;;;;;-3.79;100.00;100082.97;4999499;28;20096;-68
2024/01/17 00:44:42;;;;;;;23.05;10.43;;;;;;;-3.79;100.00;100074.41;4989854;28;20046;-68
2024/01/17 00:47:10;;;;;;;21.20;10.13;;;;;;;-3.81;100.00;100074.34;4994541;28;20046;-69
2024/01/17 00:49:39;;;;;;;18.67;11.07;;;;;;;-3.82;100.00;100070.06;4990280;28;20074;-69
2024/01/17 00:52:07;;;;;;;23.00;10.43;;;;;;;-3.85;100.00;100063.97;4994849;28;20096;-68
2024/01/17 00:54:34;;;;;;;18.90;10.45;;;;;;;-3.86;100.00;100057.97;5023238;28;20061;-68
2024/01/17 00:57:01;;;;;;;21.38;10.20;;;;;;;-3.87;100.00;100039.94;5009959;28;20054;-68
2024/01/17 00:59:29;;;;;;;21.13;10.55;;;;;;;-3.87;100.00;100043.38;4995038;28;20069;-68
2024/01/17 01:01:56;;;;;;;20.10;11.23;;;;;;;-3.87;100.00;100033.06;4996850;28;20077;-68
2024/01/17 01:04:24;;;;;;;17.48;10.55;;;;;;;-3.87;100.00;100024.47;4987733;28;20761;-68
2024/01/17 01:06:51;;;;;;;18.02;10.57;;;;;;;-3.88;100.00;100015.88;4990272;28;20049;-68
2024/01/17 01:09:18;;;;;;;18.23;10.70;;;;;;;-3.88;100.00;100018.44;5002210;28;20034;-68
2024/01/17 01:11:45;;;;;;;22.92;11.07;;;;;;;-3.88;100.00;100015.03;4990028;28;20050;-68
2024/01/17 01:14:13;;;;;;;20.65;10.75;;;;;;;-3.87;100.00;100009.88;4986685;28;20072;-68
2024/01/17 01:16:41;;;;;;;20.48;10.57;;;;;;;-3.86;100.00;100016.75;4993881;28;20042;-68
2024/01/17 01:19:08;;;;;;;21.85;11.45;;;;;;;-3.86;100.00;100016.75;5006371;28;20030;-68
2024/01/17 01:21:35;;;;;;;20.60;11.07;;;;;;;-3.88;100.00;100007.28;4990841;28;20054;-68
2024/01/17 01:24:03;;;;;;;21.23;10.90;;;;;;;-3.90;100.00;100015.84;4993820;28;20506;-68
2024/01/17 01:26:30;;;;;;;23.15;10.98;;;;;;;-3.92;100.00;100007.22;4990024;28;20084;-68
2024/01/17 01:28:58;;;;;;;21.70;10.77;;;;;;;-3.94;100.00;100002.91;4988810;28;20065;-68
2024/01/17 01:31:25;;;;;;;26.67;11.30;;;;;;;-3.96;100.00;99999.44;4990838;28;20057;-67
2024/01/17 01:33:52;;;;;;;23.75;11.02;;;;;;;-3.97;100.00;100000.28;4994507;28;20691;-68
2024/01/17 01:36:19;;;;;;;23.30;11.82;;;;;;;-3.99;100.00;99999.38;4984326;28;20065;-68
2024/01/17 01:38:46;;;;;;;21.67;11.50;;;;;;;-4.01;100.00;99989.06;4986853;28;20050;-68
2024/01/17 01:41:13;;;;;;;20.63;11.48;;;;;;;-3.99;100.00;100000.25;4986828;28;20046;-68
2024/01/17 01:43:41;;;;;;;19.50;11.38;;;;;;;-4.01;100.00;99988.19;4991090;28;20129;-68
2024/01/17 01:46:21;;;;;;;21.88;11.05;;;;;;;-4.03;100.00;99988.19;4995521;28;20491;-68
2024/01/17 01:48:49;;;;;;;23.05;12.27;;;;;;;-4.02;100.00;99986.47;4998052;28;20116;-68
2024/01/17 01:51:17;;;;;;;25.83;12.07;;;;;;;-4.05;100.00;99979.56;4989737;28;20127;-68
2024/01/17 01:53:49;;;;;;;24.75;11.85;;;;;;;-4.05;100.00;99979.56;4989090;28;20050;-68
2024/01/17 01:56:22;;;;;;;18.20;11.93;;;;;;;-4.03;100.00;99977.03;4989529;28;20104;-68
2024/01/17 01:58:53;;;;;;;23.20;13.20;;;;;;;-4.07;100.00;99978.69;5004445;28;20482;-68
2024/01/17 02:01:24;;;;;;;26.85;12.77;;;;;;;-4.08;100.00;99971.81;4995644;28;20395;-68
2024/01/17 02:03:55;;;;;;;20.38;12.25;;;;;;;-4.12;100.00;99967.44;4999495;28;20077;-68
2024/01/17 02:06:25;;;;;;;26.85;12.48;;;;;;;-4.15;100.00;99960.53;4998287;28;20045;-68
2024/01/17 02:08:55;;;;;;;24.33;12.43;;;;;;;-4.17;100.00;99953.63;4994124;28;20050;-68
2024/01/17 02:11:22;;;;;;;23.50;12.18;;;;;;;-4.19;100.00;99948.44;4987279;28;20042;-68
2024/01/17 02:13:50;;;;;;;23.95;11.65;;;;;;;-4.21;100.00;99952.69;4987317;28;20124;-69
2024/01/17 02:16:18;;;;;;;20.92;12.88;;;;;;;-4.23;100.00;99952.69;4998441;28;20122;-68
2024/01/17 02:18:47;;;;;;;21.45;12.35;;;;;;;-4.23;100.00;99941.53;4986790;28;20046;-69
2024/01/17 02:21:15;;;;;;;21.67;12.65;;;;;;;-4.24;100.00;99940.66;4999435;28;20046;-68
2024/01/17 02:23:42;;;;;;;34.70;13.05;;;;;;;-4.26;100.00;99926.88;4988971;28;20049;-68
2024/01/17 02:26:09;;;;;;;23.15;12.50;;;;;;;-4.26;100.00;99932.03;4992388;28;20081;-68
2024/01/17 02:28:36;;;;;;;22.00;12.65;;;;;;;-4.26;100.00;99932.03;4985600;28;20613;-69
2024/01/17 02:31:05;;;;;;;21.38;12.57;;;;;;;-4.28;100.00;99930.28;5005673;28;20054;-67
2024/01/17 02:33:33;;;;;;;23.08;12.13;;;;;;;-4.31;100.00;99919.94;4993349;28;20121;-68
2024/01/17 02:36:01;;;;;;;25.70;12.90;;;;;;;-4.33;100.00;99913.94;4989615;28;20615;-68
2024/01/17 02:38:28;;;;;;;21.58;12.25;;;;;;;-4.31;100.00;99904.50;4988119;28;20141;-68
2024/01/17 02:40:55;;;;;;;21.60;12.23;;;;;;;-4.31;100.00;99901.91;4996479;28;20034;-68
2024/01/17 02:43:23;;;;;;;20.95;12.02;;;;;;;-4.31;100.00;99895.09;4987491;28;20097;-68
2024/01/17 02:45:50;;;;;;;23.65;12.38;;;;;;;-4.28;100.00;99897.72;4986535;28;20049;-68
2024/01/17 02:48:17;;;;;;;21.52;11.57;;;;;;;-4.26;100.00;99887.44;4992969;28;20074;-68
2024/01/17 02:50:44;;;;;;;20.15;12.25;;;;;;;-4.25;100.00;99882.28;4990096;28;20149;-68
2024/01/17 02:53:11;;;;;;;23.83;12.43;;;;;;;-4.23;100.00;99875.47;4985977;28;20052;-67
2024/01/17 02:55:38;;;;;;;20.48;11.70;;;;;;;-4.21;100.00;99875.47;4992932;28;20129;-68
2024/01/17 02:58:05;;;;;;;22.45;12.70;;;;;;;-4.20;100.00;99869.47;4996555;28;20038;-68
2024/01/17 03:00:33;;;;;;;25.38;12.35;;;;;;;-4.19;100.00;99863.50;4989066;28;20038;-68
2024/01/17 03:03:01;;;;;;;20.77;11.65;;;;;;;-4.16;100.00;99858.41;4987485;28;20475;-68
2024/01/17 03:05:28;;;;;;;26.95;12.32;;;;;;;-4.15;100.00;99855.00;4992333;28;20038;-67
2024/01/17 03:07:55;;;;;;;21.95;11.88;;;;;;;-4.13;100.00;99849.84;4987737;28;20038;-68
2024/01/17 03:10:22;;;;;;;20.48;11.50;;;;;;;-4.13;100.00;99843.00;4994294;28;20177;-68
2024/01/17 03:12:49;;;;;;;20.73;11.07;;;;;;;-4.14;100.00;99856.72;4987708;28;20054;-67
2024/01/17 03:15:16;;;;;;;20.48;11.27;;;;;;;-4.13;100.00;99857.56;4986818;28;20042;-67
2024/01/17 03:17:44;;;;;;;22.80;11.55;;;;;;;-4.14;100.00;99846.44;4988331;28;20166;-68
2024/01/17 03:20:12;;;;;;;20.55;11.32;;;;;;;-4.14;100.00;99846.44;4995895;28;20584;-68
2024/01/17 03:22:42;;;;;;;22.25;11.50;;;;;;;-4.13;100.00;99843.00;4987348;28;20782;-69
2024/01/17 03:25:09;;;;;;;23.20;12.63;;;;;;;-4.13;100.00;99835.28;4980588;28;20322;-68
2024/01/17 03:27:36;;;;;;;17.45;10.30;;;;;;;-4.14;100.00;99828.41;5000790;28;20058;-69
2024/01/17 03:30:05;;;;;;;25.05;11.23;;;;;;;-4.12;100.00;99820.69;4994308;28;20042;-68
2024/01/17 03:32:32;;;;;;;19.92;10.80;;;;;;;-4.12;100.00;99815.53;4985070;28;20043;-69
2024/01/17 03:35:00;;;;;;;22.95;11.07;;;;;;;-4.12;100.00;99807.81;4985185;28;20049;-69
2024/01/17 03:37:27;;;;;;;21.23;11.10;;;;;;;-4.12;100.00;99803.50;4983853;28;20050;-68
2024/01/17 03:39:55;;;;;;;21.10;11.20;;;;;;;-4.12;100.00;99803.50;4990581;28;20740;-69
2024/01/17 03:42:22;;;;;;;20.15;10.93;;;;;;;-4.10;100.00;99796.69;4986103;28;20046;-68
2024/01/17 03:44:50;;;;;;;20.08;10.98;;;;;;;-4.10;100.00;99788.97;4995347;28;20058;-69
2024/01/17 03:47:17;;;;;;;23.77;11.15;;;;;;;-4.04;100.00;99790.75;4991047;28;20054;-68
2024/01/17 03:49:44;;;;;;;18.52;11.07;;;;;;;-4.03;100.00;99783.91;4989491;28;20104;-68
2024/01/17 03:52:12;;;;;;;23.10;11.93;;;;;;;-4.01;100.00;99779.63;4986663;28;20125;-69
2024/01/17 03:54:39;;;;;;;18.08;10.48;;;;;;;-4.02;100.00;99765.88;4988823;28;20047;-69
2024/01/17 03:57:35;;;;;;;20.92;11.20;;;;;;;-4.02;100.00;99754.75;4988879;28;20410;-69
2024/01/17 04:00:49;;;;;;;19.55;11.23;;;;;;;-4.03;100.00;99753.00;5007731;28;20065;-69
2024/01/17 04:03:54;;;;;;;21.50;11.35;;;;;;;-4.03;100.00;99751.28;4990420;28;20050;-69
2024/01/17 04:07:25;;;;;;;22.17;11.45;;;;;;;-4.04;100.00;99733.25;4986628;28;20060;-68
2024/01/17 04:10:47;;;;;;;25.25;10.82;;;;;;;-4.04;100.00;99726.38;4997530;28;20034;-68
2024/01/17 04:14:20;;;;;;;19.85;9.82;;;;;;;-4.02;100.00;99716.13;4990747;28;20092;-68
2024/01/17 04:17:29;;;;;;;21.77;9.63;;;;;;;-4.04;100.00;99710.09;4996088;28;20521;-69
2024/01/17 04:21:06;;;;;;;20.45;10.52;;;;;;;-4.07;100.00;99700.63;4985415;28;20159;-68
2024/01/17 04:24:10;;;;;;;20.48;10.00;;;;;;;-4.07;100.00;99698.91;4988277;28;20061;-69
2024/01/17 04:27:16;;;;;;;18.38;9.82;;;;;;;-4.08;100.00;99671.41;4997895;28;20419;-69
2024/01/17 04:30:06;;;;;;;20.90;9.70;;;;;;;-4.09;100.00;99667.13;4992496;28;20076;-69
2024/01/17 04:32:47;;;;;;;21.17;9.70;;;;;;;-4.08;100.00;99665.41;4989416;28;20054;-69
2024/01/17 04:36:03;;;;;;;17.42;9.43;;;;;;;-4.07;100.00;99656.84;4993265;28;20049;-69
2024/01/17 04:39:15;;;;;;;14.70;9.02;;;;;;;-4.04;100.00;99651.72;4987882;28;20053;-69
2024/01/17 04:41:52;;;;;;;19.45;9.82;;;;;;;-4.04;100.00;99638.84;4987549;28;20061;-68
2024/01/17 04:44:59;;;;;;;19.98;9.50;;;;;;;-4.03;100.00;99632.00;5002236;28;20050;-68
2024/01/17 04:47:26;;;;;;;19.83;9.38;;;;;;;-4.01;100.00;99625.13;4998762;28;20495;-69
2024/01/17 04:49:53;;;;;;;20.98;9.75;;;;;;;-4.01;100.00;99618.28;5000757;28;20080;-69
2024/01/17 04:52:21;;;;;;;23.75;9.65;;;;;;;-4.03;100.00;99622.53;4994909;28;20050;-69
2024/01/17 04:54:51;;;;;;;16.98;9.40;;;;;;;-4.04;100.00;99619.97;4990313;28;20050;-69
2024/01/17 04:57:18;;;;;;;17.80;9.18;;;;;;;-4.04;100.00;99613.09;4991249;28;20050;-69
2024/01/17 04:59:45;;;;;;;19.40;10.23;;;;;;;-4.03;100.00;99606.25;4991459;28;20050;-69
2024/01/17 05:02:12;;;;;;;19.02;9.57;;;;;;;-4.03;100.00;99601.09;4988650;28;20105;-69
2024/01/17 05:04:39;;;;;;;15.43;8.88;;;;;;;-4.06;100.00;99597.63;4992458;28;20621;-69
2024/01/17 05:07:07;;;;;;;16.75;9.20;;;;;;;-4.06;100.00;99600.22;4985273;28;20104;-68
2024/01/17 05:09:34;;;;;;;21.80;10.45;;;;;;;-4.06;100.00;99601.91;4980290;28;20282;-69
2024/01/17 05:12:02;;;;;;;18.75;8.93;;;;;;;-4.06;100.00;99596.75;4992084;28;20045;-68
2024/01/17 05:14:29;;;;;;;17.33;9.00;;;;;;;-4.08;100.00;99606.22;5002728;28;20048;-68
2024/01/17 05:16:57;;;;;;;15.63;8.88;;;;;;;-4.10;100.00;99598.44;5002233;28;20492;-68
2024/01/17 05:19:24;;;;;;;17.38;9.13;;;;;;;-4.10;100.00;99597.59;4982678;28;20099;-68
2024/01/17 05:21:51;;;;;;;18.00;9.00;;;;;;;-4.11;100.00;99583.00;4993839;28;20042;-68
2024/01/17 05:24:18;;;;;;;16.85;9.65;;;;;;;-4.12;100.00;99582.13;4996147;28;20426;-68
2024/01/17 05:26:47;;;;;;;18.75;10.10;;;;;;;-4.13;100.00;99567.56;4987387;28;20057;-69
2024/01/17 05:29:15;;;;;;;21.45;9.10;;;;;;;-4.14;100.00;99564.94;4985402;28;21135;-67
2024/01/17 05:31:42;;;;;;;16.77;8.95;;;;;;;-4.15;100.00;99561.53;4988742;28;20058;-68
2024/01/17 05:34:09;;;;;;;14.57;8.65;;;;;;;-4.16;100.00;99557.22;4987877;28;20046;-67
2024/01/17 05:36:37;;;;;;;18.30;9.35;;;;;;;-4.17;100.00;99550.34;4988930;28;20050;-67
2024/01/17 05:39:04;;;;;;;17.10;9.45;;;;;;;-4.18;100.00;99546.03;4982091;28;20510;-67
2024/01/17 05:41:32;;;;;;;18.90;9.52;;;;;;;-4.21;100.00;99544.31;4986920;28;20073;-67
2024/01/17 05:43:59;;;;;;;17.30;10.35;;;;;;;-4.22;100.00;99537.44;4991912;28;20038;-70
2024/01/17 05:46:26;;;;;;;18.23;9.27;;;;;;;-4.25;100.00;99531.41;4998309;28;20050;-70
2024/01/17 05:48:53;;;;;;;18.15;9.55;;;;;;;-4.27;100.00;99533.94;4988393;28;20038;-68
2024/01/17 05:51:20;;;;;;;20.38;9.25;;;;;;;-4.29;100.00;99527.94;4989787;28;20030;-66
2024/01/17 05:53:48;;;;;;;20.90;9.43;;;;;;;-4.30;100.00;99528.78;4986793;28;20590;-68
2024/01/17 05:56:15;;;;;;;15.77;9.50;;;;;;;-4.32;100.00;99525.31;4986713;28;20414;-67
2024/01/17 05:58:42;;;;;;;18.02;9.23;;;;;;;-4.34;100.00;99521.88;4982591;28;20109;-68
2024/01/17 06:01:09;;;;;;;17.58;9.52;;;;;;;-4.35;100.00;99519.28;4987828;28;20074;-68
2024/01/17 06:03:36;;;;;;;17.90;9.35;;;;;;;-4.35;100.00;99506.44;4987350;28;20126;-68
2024/01/17 06:06:04;;;;;;;22.45;9.80;;;;;;;-4.38;100.00;99497.81;4987710;28;20054;-68
2024/01/17 06:08:31;;;;;;;20.38;9.57;;;;;;;-4.38;100.00;99497.81;4988495;28;20038;-68
2024/01/17 06:10:58;;;;;;;19.65;9.73;;;;;;;-4.39;100.00;99487.53;4987033;28;20141;-69
2024/01/17 06:13:25;;;;;;;21.35;9.80;;;;;;;-4.38;100.00;99490.09;4988153;28;20050;-68
2024/01/17 06:15:52;;;;;;;20.20;9.27;;;;;;;-4.40;100.00;99489.22;4988859;28;20054;-69
2024/01/17 06:18:19;;;;;;;17.60;9.27;;;;;;;-4.40;100.00;99496.94;4984434;28;20042;-68
2024/01/17 06:20:47;;;;;;;20.77;9.48;;;;;;;-4.39;100.00;99485.81;4986848;28;20049;-68
2024/01/17 06:23:14;;;;;;;17.35;9.68;;;;;;;-4.38;100.00;99487.53;4986828;28;20042;-69
2024/01/17 06:25:42;;;;;;;19.52;9.85;;;;;;;-4.36;100.00;99484.97;4983541;28;20073;-69
2024/01/17 06:28:09;;;;;;;29.02;21.20;;;;;;;-4.35;100.00;99485.84;4983538;28;20046;-68
2024/01/17 06:30:38;;;;;;;21.02;10.48;;;;;;;-4.35;100.00;99485.84;4984757;28;20034;-68
2024/01/17 06:33:06;;;;;;;29.70;17.42;;;;;;;-4.35;100.00;99475.53;4983876;28;20053;-68
2024/01/17 06:35:34;;;;;;;50.63;22.85;;;;;;;-4.35;100.00;99478.97;4987457;28;20042;-68
2024/01/17 06:38:02;;;;;;;77.95;32.10;;;;;;;-4.34;100.00;99469.56;4988267;28;20046;-68
2024/01/17 06:40:29;;;;;;;49.90;21.48;;;;;;;-4.35;100.00;99471.25;4986693;28;20038;-68
2024/01/17 06:42:56;;;;;;;97.00;45.72;;;;;;;-4.33;100.00;99468.72;4984537;28;20053;-67
2024/01/17 06:45:25;;;;;;;37.92;21.95;;;;;;;-4.33;100.00;99461.84;4984754;28;20073;-67
2024/01/17 06:47:52;;;;;;;26.05;16.77;;;;;;;-4.31;100.00;99470.44;4986884;28;20050;-67
2024/01/17 06:50:19;;;;;;;33.03;18.58;;;;;;;-4.31;100.00;99452.44;4988181;28;20042;-66
2024/01/17 06:52:47;;;;;;;33.25;20.17;;;;;;;-4.29;100.00;99453.31;4986931;28;20510;-67
2024/01/17 06:55:14;;;;;;;28.17;16.80;;;;;;;-4.28;100.00;99451.56;4986633;28;20038;-67
2024/01/17 06:57:44;;;;;;;27.75;15.73;;;;;;;-4.29;100.00;99440.44;4984527;28;20054;-66
2024/01/17 07:00:13;;;;;;;49.85;30.83;;;;;;;-4.27;100.00;99425.00;4985643;28;20049;-67
2024/01/17 07:02:41;;;;;;;52.78;28.30;;;;;;;-4.27;100.00;99423.28;4982596;28;20050;-67
2024/01/17 07:05:08;;;;;;;35.58;20.27;;;;;;;-4.25;100.00;99421.56;4986433;28;20050;-67
2024/01/17 07:07:39;;;;;;;27.75;16.35;;;;;;;-4.25;100.00;99419.00;4986213;28;20045;-67
2024/01/17 07:10:08;;;;;;;37.50;22.70;;;;;;;-4.26;100.00;99421.56;4985021;28;20047;-67
2024/01/17 07:12:35;;;;;;;24.10;14.45;;;;;;;-4.25;100.00;99419.00;4985404;28;20050;-67
2024/01/17 07:15:03;;;;;;;20.35;11.20;;;;;;;-4.24;100.00;99410.44;4986892;28;20089;-67
2024/01/17 07:17:30;;;;;;;23.10;10.38;;;;;;;-4.23;100.00;99413.88;4987274;28;20046;-67
2024/01/17 07:19:58;;;;;;;26.75;12.32;;;;;;;-4.22;100.00;99398.44;4986528;28;20046;-67
2024/01/17 07:22:25;;;;;;;19.73;11.23;;;;;;;-4.22;100.00;99398.44;4985981;28;20092;-68
2024/01/17 07:24:52;;;;;;;25.88;11.57;;;;;;;-4.19;100.00;99399.31;4987706;28;20612;-67
2024/01/17 07:27:19;;;;;;;24.00;12.00;;;;;;;-4.16;100.00;99389.03;4987928;28;20057;-66
2024/01/17 07:29:46;;;;;;;22.40;12.18;;;;;;;-4.15;100.00;99383.91;4985141;28;20066;-67
2024/01/17 07:32:13;;;;;;;25.15;15.20;;;;;;;-4.12;100.00;99386.47;4989955;28;20120;-68
2024/01/17 07:34:41;;;;;;;29.10;13.60;;;;;;;-4.09;100.00;99388.22;4989362;28;20683;-68
2024/01/17 07:37:08;;;;;;;22.77;11.30;;;;;;;-4.09;100.00;99376.19;4991531;28;20042;-68
2024/01/17 07:39:40;;;;;;;22.52;11.40;;;;;;;-4.07;100.00;99365.94;4992827;28;20122;-68
2024/01/17 07:42:07;;;;;;;26.02;12.05;;;;;;;-4.05;100.00;99359.06;4989246;28;20049;-67
2024/01/17 07:44:35;;;;;;;26.45;14.73;;;;;;;-4.04;100.00;99347.06;4992010;28;20137;-71
2024/01/17 07:47:03;;;;;;;23.73;13.95;;;;;;;-4.00;100.00;99346.19;4990187;28;20050;-68
2024/01/17 07:49:30;;;;;;;23.52;11.77;;;;;;;-3.98;100.00;99340.22;4991529;28;20201;-67
2024/01/17 07:51:57;;;;;;;23.05;12.55;;;;;;;-3.95;100.00;99336.81;4986636;28;20491;-67
2024/01/17 07:54:24;;;;;;;22.17;11.63;;;;;;;-3.93;100.00;99335.94;4989174;28;20076;-68
2024/01/17 07:56:51;;;;;;;23.55;11.85;;;;;;;-3.89;100.00;99329.09;4990999;28;20054;-67
2024/01/17 07:59:18;;;;;;;19.08;11.52;;;;;;;-3.86;100.00;99329.13;4990965;28;20103;-68
2024/01/17 08:01:48;;;;;;;19.92;11.90;;;;;;;-3.83;100.00;99329.13;4990605;28;20042;-68
2024/01/17 08:04:18;;;;;;;23.33;12.00;;;;;;;-3.80;100.00;99316.25;4991488;28;20069;-68
2024/01/17 08:06:45;;;;;;;27.92;12.02;;;;;;;-3.78;100.00;99324.84;4990916;28;20046;-68
2024/01/17 08:09:22;;;;;;;24.63;12.50;;;;;;;-3.75;100.00;99305.97;4990991;28;20058;-68
2024/01/17 08:11:54;;;;;;;24.70;12.60;;;;;;;-3.70;100.00;99308.56;4990963;28;20093;-68
2024/01/17 08:14:23;;;;;;;33.00;15.88;;;;;;;-3.70;100.00;99304.28;4988703;28;20711;-67
2024/01/17 08:16:50;;;;;;;27.63;13.40;;;;;;;-3.64;100.00;99308.59;4987627;28;20038;-68
2024/01/17 08:19:19;;;;;;;23.67;11.98;;;;;;;-3.62;100.00;99297.44;4989781;28;20039;-68
2024/01/17 08:21:48;;;;;;;24.50;12.15;;;;;;;-3.56;100.00;99294.00;4988611;28;20046;-68
2024/01/17 08:24:17;;;;;;;23.38;13.60;;;;;;;-3.50;100.00;99290.59;4987201;28;20510;-68
2024/01/17 08:26:50;;;;;;;;;;;;;;;-3.46;100.00;99285.44;4991088;28;20097;-67
2024/01/17 08:29:18;;;;;;;24.33;12.77;;;;;;;-3.40;100.00;99281.13;4990447;28;19926;-67
2024/01/17 08:31:50;;;;;;;24.08;11.75;;;;;;;-3.34;100.00;99274.28;4989431;28;20054;-68
2024/01/17 08:34:20;;;;;;;39.97;18.15;;;;;;;-3.29;100.00;99272.59;4990956;28;20046;-68
2024/01/17 08:36:47;;;;;;;45.28;21.85;;;;;;;-3.23;100.00;99269.16;4988535;28;20054;-68
2024/01/17 08:39:15;;;;;;;24.63;12.95;;;;;;;-3.19;100.00;99264.84;4989928;28;20054;-68
2024/01/17 08:41:45;;;;;;;23.33;11.73;;;;;;;-3.15;100.00;99266.56;4990473;28;20050;-68
2024/01/17 08:44:18;;;;;;;20.42;11.10;;;;;;;-3.10;100.00;99262.28;4990224;28;20133;-68
2024/01/17 08:46:53;;;;;;;22.67;12.07;;;;;;;-3.08;100.00;99254.53;4989620;28;20046;-68
2024/01/17 08:49:23;;;;;;;23.17;11.55;;;;;;;-3.07;100.00;99245.94;4990345;28;20042;-68
2024/01/17 08:51:54;;;;;;;24.08;12.98;;;;;;;-3.03;100.00;99248.50;4988400;28;20447;-68
2024/01/17 08:54:29;;;;;;;24.33;11.10;;;;;;;-2.97;100.00;99248.53;4990364;28;20098;-69
2024/01/17 08:56:56;;;;;;;25.75;11.63;;;;;;;-2.91;100.00;99249.38;4990723;28;20562;-67
2024/01/17 08:59:23;;;;;;;24.40;12.35;;;;;;;-2.88;100.00;99247.63;4990670;28;20049;-67
2024/01/17 09:01:52;;;;;;;23.08;11.68;;;;;;;-2.83;100.00;99245.94;4989792;28;20046;-67
2024/01/17 09:04:19;;;;;;;19.92;11.43;;;;;;;-2.82;100.00;99242.50;4990235;28;20050;-67
2024/01/17 09:06:46;;;;;;;28.25;14.40;;;;;;;-2.78;100.00;99239.88;4989986;28;20046;-67
2024/01/17 09:09:14;;;;;;;33.20;17.08;;;;;;;-2.72;100.00;99232.16;4988645;28;20046;-67
2024/01/17 09:11:42;;;;;;;22.83;12.57;;;;;;;-2.64;100.00;99219.25;4986846;28;20121;-67
2024/01/17 09:14:10;;;;;;;29.55;16.02;;;;;;;-2.59;100.00;99215.75;4989722;28;20117;-67
2024/01/17 09:16:37;;;;;;;24.25;13.82;;;;;;;-2.52;100.00;99214.91;4988767;28;20054;-67
2024/01/17 09:19:04;;;;;;;27.63;12.13;;;;;;;-2.47;100.00;99211.44;4989993;28;20038;-68
2024/01/17 09:21:32;;;;;;;34.15;15.73;;;;;;;-2.45;100.00;99212.28;4988189;28;20405;-68
2024/01/17 09:23:59;;;;;;;35.70;18.13;;;;;;;-2.39;100.00;99201.97;4990117;28;20067;-67
2024/01/17 09:26:26;;;;;;;22.02;12.07;;;;;;;-2.32;100.00;99195.03;5021851;28;20046;-67
2024/01/17 09:28:53;;;;;;;21.83;12.45;;;;;;;-2.29;100.00;99190.69;4986589;28;20120;-67
2024/01/17 09:31:20;;;;;;;23.15;13.30;;;;;;;-2.23;100.00;99193.28;4989594;28;20078;-67
2024/01/17 09:33:47;;;;;;;22.95;12.32;;;;;;;-2.14;100.00;99184.63;4988388;28;20138;-67
2024/01/17 09:36:15;;;;;;;22.23;11.95;;;;;;;-2.06;100.00;99180.28;4989442;28;20089;-67
2024/01/17 09:38:43;;;;;;;23.83;12.40;;;;;;;-2.03;100.00;99182.00;4984284;28;20194;-67
2024/01/17 09:41:10;;;;;;;25.77;15.10;;;;;;;-1.96;100.00;99178.50;4982156;28;20039;-67
2024/01/17 09:43:37;;;;;;;37.95;21.95;;;;;;;-1.88;100.00;99175.88;4988267;28;20046;-67
2024/01/17 09:46:11;;;;;;;24.48;13.50;;;;;;;-1.79;100.00;99173.22;4989085;28;20051;-67
2024/01/17 09:48:40;;;;;;;23.58;14.88;;;;;;;-1.72;100.00;99179.22;4988257;28;20108;-66
2024/01/17 09:51:15;;;;;;;28.35;14.43;;;;;;;-1.66;100.00;99186.06;4988989;28;20034;-68
2024/01/17 09:53:48;;;;;;;34.80;16.77;;;;;;;-1.61;100.00;99176.53;4987053;28;20209;-66
2024/01/17 09:56:17;;;;;;;26.00;15.77;;;;;;;-1.52;100.00;99171.31;4987784;28;20077;-66
2024/01/17 09:58:49;;;;;;;31.25;14.80;;;;;;;-1.45;100.00;99172.13;4987078;28;20050;-68
2024/01/17 10:03:29;;;;;;;36.67;20.75;;;;;;;-1.36;100.00;99164.28;5063396;28;20423;-66
2024/01/17 10:05:57;;;;;;;26.08;14.10;;;;;;;-1.34;100.00;99159.13;5044450;28;20041;-67
2024/01/17 10:08:25;;;;;;;34.22;15.65;;;;;;;-1.30;100.00;99160.78;5045372;28;20383;-67
2024/01/17 10:10:52;;;;;;;28.38;16.35;;;;;;;-1.23;100.00;99156.41;5043837;28;20041;-67
2024/01/17 10:13:19;;;;;;;32.40;16.40;;;;;;;-1.20;100.00;99149.50;5038772;28;20037;-67
2024/01/17 10:15:47;;;;;;;25.67;13.38;;;;;;;-1.16;100.00;99145.13;5042105;28;20052;-66
2024/01/17 10:18:14;;;;;;;26.25;12.50;;;;;;;-1.20;100.00;99143.47;5059262;28;20041;-66
2024/01/17 10:20:43;;;;;;;23.00;13.85;;;;;;;-1.27;100.00;99137.50;5045501;28;20390;-68
2024/01/17 10:23:12;;;;;;;32.15;17.60;;;;;;;-1.31;100.00;99134.09;5043473;28;20068;-68
2024/01/17 10:25:44;;;;;;;30.73;16.27;;;;;;;-1.30;100.00;99132.34;5044581;28;20120;-66
2024/01/17 10:28:11;;;;;;;23.20;13.18;;;;;;;-1.29;100.00;99129.75;5042839;28;20044;-66
2024/01/17 10:30:41;;;;;;;24.83;12.65;;;;;;;-1.31;100.00;99125.44;5038961;28;20079;-66
2024/01/17 10:33:09;;;;;;;30.17;13.85;;;;;;;-1.27;100.00;99124.56;5039655;28;20037;-66
2024/01/17 10:35:37;;;;;;;25.98;12.48;;;;;;;-1.26;100.00;99114.19;5042494;28;20119;-66
2024/01/17 10:38:05;;;;;;;21.63;11.90;;;;;;;-1.20;99.47;99113.28;5043622;28;20491;-67
2024/01/17 10:40:32;;;;;;;24.05;12.63;;;;;;;-1.25;99.12;99102.97;5039156;28;20535;-66
2024/01/17 10:43:09;;;;;;;20.63;12.25;;;;;;;-1.25;99.67;99107.31;5043850;28;20327;-67
2024/01/17 10:45:40;;;;;;;24.58;12.25;;;;;;;-1.21;99.09;99100.38;5054233;28;20068;-67
2024/01/17 10:48:07;;;;;;;23.85;12.48;;;;;;;-1.20;99.73;99104.69;5043874;28;20052;-66
2024/01/17 10:50:35;;;;;;;27.73;13.32;;;;;;;-1.17;100.00;99099.50;5045035;28;20049;-66
2024/01/17 10:53:06;;;;;;;22.83;13.15;;;;;;;-1.12;100.00;99095.09;5044205;28;20041;-67
2024/01/17 10:55:35;;;;;;;24.48;11.90;;;;;;;-1.08;100.00;99085.56;5040775;28;20052;-66
2024/01/17 10:58:13;;;;;;;25.23;12.15;;;;;;;-1.07;100.00;99083.00;5041633;28;20049;-67
2024/01/17 11:00:47;;;;;;;24.08;12.48;;;;;;;-1.06;99.76;99074.34;5027875;28;20037;-66
2024/01/17 11:03:20;;;;;;;24.25;13.98;;;;;;;-1.02;100.00;99077.78;5037041;28;20063;-66
2024/01/17 11:05:53;;;;;;;23.65;12.48;;;;;;;-0.96;99.75;99067.34;5037791;28;20120;-66
2024/01/17 11:08:21;;;;;;;29.03;13.80;;;;;;;-0.93;99.46;99069.91;5036399;28;20048;-67
2024/01/17 11:10:53;;;;;;;25.50;14.52;;;;;;;-0.90;99.78;99064.66;5037114;28;20126;-66
2024/01/17 11:13:21;;;;;;;24.85;13.80;;;;;;;-0.83;99.57;99057.69;5034961;28;20065;-67
2024/01/17 11:15:51;;;;;;;35.70;22.15;;;;;;;-0.76;100.00;99048.13;5030337;28;20128;-66
2024/01/17 11:18:20;;;;;;;25.35;15.02;;;;;;;-0.72;100.00;99048.06;5029041;28;20484;-66
2024/01/17 11:20:48;;;;;;;29.05;14.65;;;;;;;-0.67;100.00;99040.25;5030091;28;20143;-66
2024/01/17 11:23:44;;;;;;;24.02;13.13;;;;;;;-0.65;99.75;99034.16;5028767;28;20053;-67
2024/01/17 11:26:35;;;;;;;27.17;13.30;;;;;;;-0.63;99.67;99037.59;5030753;28;20050;-66